Time;durP1;ratioP1;P1;durP2;ratioP2;P2;SDS_P1;SDS_P2;PMS_P1;PMS_P2;Temp;Humidity;BMP_temperature;BMP_pressure;BME280_temperature;BME280_humidity;BME280_pressure;Samples;Min_cycle;Max_cycle;Signal;HPM_P1;HPM_P2
2023/01/06 00:00:37;;;;;;;68.50;55.00;;;10.00;99.90;;;;;;5071128;28;20093;-76
2023/01/06 00:03:02;;;;;;;64.20;45.17;;;10.00;99.90;;;;;;5052149;28;20052;-76
2023/01/06 00:05:29;;;;;;;63.47;43.53;;;10.00;99.90;;;;;;5071392;28;20137;-76
2023/01/06 00:07:55;;;;;;;66.47;43.60;;;10.10;99.90;;;;;;5054437;28;20049;-76
2023/01/06 00:10:21;;;;;;;72.77;65.30;;;10.00;99.90;;;;;;5070529;28;20429;-76
2023/01/06 00:12:48;;;;;;;61.87;36.10;;;10.00;99.90;;;;;;5052139;28;20045;-76
2023/01/06 00:15:15;;;;;;;58.53;49.10;;;10.10;99.90;;;;;;5070801;28;20048;-76
2023/01/06 00:17:41;;;;;;;59.87;45.80;;;10.10;99.90;;;;;;5054013;28;20044;-76
2023/01/06 00:20:08;;;;;;;57.60;43.13;;;10.10;99.90;;;;;;5053245;28;20041;-77
2023/01/06 00:22:33;;;;;;;65.53;58.73;;;10.10;99.90;;;;;;5051469;28;20037;-78
2023/01/06 00:24:59;;;;;;;74.93;67.30;;;10.10;99.90;;;;;;5070909;28;20041;-76
2023/01/06 00:27:25;;;;;;;61.20;42.00;;;10.10;99.90;;;;;;5053442;28;20048;-76
2023/01/06 00:29:51;;;;;;;56.83;44.33;;;10.10;99.90;;;;;;5070460;28;20079;-76
2023/01/06 00:32:17;;;;;;;81.73;73.77;;;10.10;99.90;;;;;;5069270;28;20123;-76
2023/01/06 00:34:43;;;;;;;60.47;53.30;;;10.10;99.90;;;;;;5069854;28;20063;-76
2023/01/06 00:37:09;;;;;;;61.73;44.73;;;10.10;99.90;;;;;;5055177;28;20076;-76
2023/01/06 00:39:35;;;;;;;54.97;38.20;;;10.10;99.90;;;;;;5052028;28;20079;-76
2023/01/06 00:42:03;;;;;;;56.60;47.40;;;10.20;99.90;;;;;;5052125;28;20135;-75
2023/01/06 00:44:37;;;;;;;52.23;39.30;;;10.20;99.90;;;;;;5051136;28;20064;-76
2023/01/06 00:47:06;;;;;;;45.00;33.90;;;10.20;99.90;;;;;;5035941;28;20517;-72
2023/01/06 00:49:32;;;;;;;42.13;34.10;;;10.30;99.90;;;;;;5051765;28;20398;-77
2023/01/06 00:51:57;;;;;;;107.40;100.00;;;10.30;99.90;;;;;;5069965;28;20056;-75
2023/01/06 00:54:23;;;;;;;63.20;57.23;;;10.30;99.90;;;;;;5069008;28;20052;-76
2023/01/06 00:56:51;;;;;;;40.80;36.53;;;10.40;99.90;;;;;;5054726;28;20048;-76
2023/01/06 00:59:19;;;;;;;83.87;77.63;;;10.40;99.90;;;;;;5050777;28;20505;-76
2023/01/06 01:01:46;;;;;;;112.37;104.23;;;10.30;99.90;;;;;;5069684;28;20052;-76
2023/01/06 01:04:12;;;;;;;44.60;40.53;;;10.30;99.90;;;;;;5051328;28;20513;-76
2023/01/06 01:06:40;;;;;;;53.80;49.23;;;10.30;99.90;;;;;;5046567;28;20143;-77
2023/01/06 01:09:06;;;;;;;44.80;40.20;;;10.40;99.90;;;;;;5045334;28;20060;-76
2023/01/06 01:14:19;;;;;;;67.67;62.10;;;10.30;99.90;;;;;;5048220;28;20055;-75
2023/01/06 01:16:45;;;;;;;77.93;72.23;;;10.30;99.90;;;;;;5052139;28;20498;-76
2023/01/06 01:19:11;;;;;;;63.87;58.80;;;10.20;99.90;;;;;;5068674;28;20055;-76
2023/01/06 01:21:38;;;;;;;78.60;72.97;;;10.30;99.90;;;;;;5051218;28;20367;-76
2023/01/06 01:24:04;;;;;;;54.57;50.40;;;10.30;99.90;;;;;;5050497;28;20124;-76
2023/01/06 01:26:29;;;;;;;91.37;84.90;;;10.30;99.90;;;;;;5055540;28;20143;-75
2023/01/06 01:28:55;;;;;;;37.43;33.67;;;10.30;99.90;;;;;;5049614;28;20102;-76
2023/01/06 01:31:21;;;;;;;39.80;36.10;;;10.20;99.90;;;;;;5069349;28;20052;-76
2023/01/06 01:33:46;;;;;;;124.23;114.97;;;10.30;99.90;;;;;;5068602;28;20054;-75
2023/01/06 01:36:14;;;;;;;106.40;98.93;;;10.20;99.90;;;;;;5059591;28;20080;-77
2023/01/06 01:38:40;;;;;;;241.87;224.37;;;10.10;99.90;;;;;;5063338;28;20056;-76
2023/01/06 01:41:06;;;;;;;42.23;38.50;;;10.30;99.90;;;;;;5069645;28;20366;-77
2023/01/06 01:43:54;;;;;;;44.10;40.17;;;10.10;99.90;;;;;;5050578;28;20053;-76
2023/01/06 01:46:39;;;;;;;44.87;41.33;;;10.10;99.90;;;;;;5058386;28;20372;-76
2023/01/06 01:49:27;;;;;;;90.83;84.30;;;10.10;99.90;;;;;;5048872;28;20382;-76
2023/01/06 01:51:55;;;;;;;46.60;42.43;;;10.10;99.90;;;;;;5069311;28;20056;-76
2023/01/06 01:54:27;;;;;;;59.97;55.60;;;10.10;99.90;;;;;;5068832;28;20087;-76
2023/01/06 01:56:59;;;;;;;40.60;37.53;;;10.00;99.90;;;;;;5053014;28;20051;-77
2023/01/06 01:59:28;;;;;;;39.58;35.78;;;10.00;99.90;;;;;;5068204;28;20040;-75
2023/01/06 02:01:54;;;;;;;116.03;108.10;;;10.00;99.90;;;;;;5051354;28;20053;-76
2023/01/06 02:04:21;;;;;;;67.83;63.40;;;10.00;99.90;;;;;;5050598;28;20434;-77
2023/01/06 02:06:49;;;;;;;41.13;37.20;;;10.00;99.90;;;;;;5035986;28;20554;-76
2023/01/06 02:09:23;;;;;;;149.53;139.63;;;10.10;99.90;;;;;;5067577;28;20410;-77
2023/01/06 02:11:51;;;;;;;71.13;65.93;;;10.10;99.90;;;;;;5068434;28;20509;-75
2023/01/06 02:14:20;;;;;;;56.63;52.50;;;10.00;99.90;;;;;;5050468;28;20049;-77
2023/01/06 02:16:54;;;;;;;61.50;56.87;;;10.10;99.90;;;;;;5035464;28;20061;-76
2023/01/06 02:19:38;;;;;;;37.83;34.73;;;10.10;99.90;;;;;;5067390;28;20059;-76
2023/01/06 02:22:36;;;;;;;118.27;110.27;;;10.00;99.90;;;;;;5068130;28;20094;-75
2023/01/06 02:25:38;;;;;;;60.17;55.37;;;10.00;99.90;;;;;;5056229;28;20375;-76
2023/01/06 02:28:35;;;;;;;44.77;41.40;;;10.10;99.90;;;;;;5052373;28;20052;-76
2023/01/06 02:31:39;;;;;;;70.70;66.40;;;10.10;99.90;;;;;;5068510;28;20059;-76
2023/01/06 02:34:29;;;;;;;44.33;40.67;;;10.00;99.90;;;;;;5068313;28;20048;-76
2023/01/06 02:37:14;;;;;;;49.93;45.80;;;10.00;99.90;;;;;;5035370;28;20456;-76
2023/01/06 02:40:10;;;;;;;44.93;41.57;;;10.00;99.90;;;;;;5068782;28;20041;-77
2023/01/06 02:43:04;;;;;;;39.70;36.73;;;10.00;99.90;;;;;;5068095;28;20049;-76
2023/01/06 02:45:48;;;;;;;39.57;36.47;;;10.00;99.90;;;;;;5069185;28;20048;-76
2023/01/06 02:48:17;;;;;;;62.27;57.67;;;10.00;99.90;;;;;;5034388;28;20402;-77
2023/01/06 02:50:50;;;;;;;84.23;78.00;;;10.00;99.90;;;;;;5070651;28;20135;-77
2023/01/06 02:53:35;;;;;;;36.23;33.07;;;10.00;99.90;;;;;;5071704;28;20303;-76
2023/01/06 02:56:02;;;;;;;41.80;38.57;;;10.00;99.90;;;;;;5070954;28;20525;-75
2023/01/06 02:58:41;;;;;;;41.07;38.00;;;9.90;99.90;;;;;;5055933;28;20409;-75
2023/01/06 03:01:22;;;;;;;62.57;58.27;;;9.90;99.90;;;;;;5071519;28;20127;-76
2023/01/06 03:03:49;;;;;;;;;;;10.00;99.90;;;;;;5071809;28;20501;-75
2023/01/06 03:06:17;;;;;;;42.40;39.10;;;10.00;99.90;;;;;;5062353;28;20373;-75
2023/01/06 03:08:45;;;;;;;46.20;43.10;;;10.00;99.90;;;;;;5066430;28;20052;-79
2023/01/06 03:11:11;;;;;;;42.97;39.87;;;9.90;99.90;;;;;;5054039;28;20064;-77
2023/01/06 03:13:54;;;;;;;51.80;48.40;;;9.90;99.90;;;;;;5071683;28;20052;-77
2023/01/06 03:16:21;;;;;;;41.07;38.37;;;10.00;99.90;;;;;;5060818;28;20040;-76
2023/01/06 03:18:49;;;;;;;39.10;36.50;;;9.90;99.90;;;;;;5067861;28;20052;-76
2023/01/06 03:21:20;;;;;;;91.83;85.73;;;9.90;99.90;;;;;;5053829;28;20060;-76
2023/01/06 03:23:46;;;;;;;114.03;106.30;;;9.90;99.90;;;;;;5071174;28;20486;-77
2023/01/06 03:26:12;;;;;;;38.43;35.00;;;9.90;99.90;;;;;;5063729;28;20066;-80
2023/01/06 03:28:38;;;;;;;55.90;52.70;;;10.00;99.90;;;;;;5064863;28;20111;-75
2023/01/06 03:31:27;;;;;;;62.57;58.27;;;10.00;99.90;;;;;;5036758;28;20087;-75
2023/01/06 03:34:10;;;;;;;33.37;30.80;;;10.00;99.90;;;;;;5070515;28;20052;-76
2023/01/06 03:37:04;;;;;;;61.83;57.50;;;10.00;99.90;;;;;;5056695;28;20390;-75
2023/01/06 03:39:56;;;;;;;37.93;35.30;;;10.00;99.90;;;;;;5071354;28;20055;-76
2023/01/06 03:45:31;;;;;;;46.10;43.23;;;10.00;99.90;;;;;;5071324;28;20055;-77
2023/01/06 03:48:23;;;;;;;41.97;39.28;;;9.90;99.90;;;;;;5054741;28;20060;-75
2023/01/06 03:51:05;;;;;;;35.53;33.30;;;9.90;99.90;;;;;;5071095;28;20040;-77
2023/01/06 03:54:05;;;;;;;57.60;53.80;;;10.00;99.90;;;;;;5052084;28;20383;-76
2023/01/06 03:56:57;;;;;;;42.10;39.33;;;10.10;99.90;;;;;;5001761;28;20423;-77
2023/01/06 03:59:29;;;;;;;33.73;31.27;;;10.10;99.90;;;;;;5061926;28;20060;-76
2023/01/06 04:01:55;;;;;;;40.03;37.50;;;10.00;99.90;;;;;;5051009;28;20055;-76
2023/01/06 04:04:21;;;;;;;50.00;46.83;;;10.00;99.90;;;;;;5070468;28;20044;-76
2023/01/06 04:06:47;;;;;;;43.13;40.43;;;10.00;99.90;;;;;;5055374;28;20048;-78
2023/01/06 04:09:12;;;;;;;34.17;31.53;;;10.00;99.90;;;;;;5067991;28;20516;-77
2023/01/06 04:14:22;;;;;;;76.90;72.30;;;10.00;99.90;;;;;;5069988;28;20432;-76
2023/01/06 04:16:48;;;;;;;62.20;58.60;;;9.90;99.90;;;;;;5054799;28;20320;-76
2023/01/06 04:19:13;;;;;;;50.40;47.20;;;10.00;99.90;;;;;;5067023;28;20048;-76
2023/01/06 04:21:39;;;;;;;46.63;43.47;;;9.90;99.90;;;;;;5069067;28;20140;-76
2023/01/06 04:24:05;;;;;;;31.90;29.67;;;9.90;99.90;;;;;;5058411;28;20078;-77
2023/01/06 04:26:32;;;;;;;40.33;37.60;;;9.90;99.90;;;;;;5037486;28;20333;-78
2023/01/06 04:28:59;;;;;;;54.17;50.83;;;9.80;99.90;;;;;;5049333;28;20457;-78
2023/01/06 04:31:24;;;;;;;48.50;45.30;;;9.90;99.90;;;;;;5070392;28;20098;-76
2023/01/06 04:33:50;;;;;;;52.50;49.10;;;9.90;99.90;;;;;;5051997;28;20044;-77
2023/01/06 04:36:16;;;;;;;43.87;40.90;;;9.90;99.90;;;;;;5042516;28;20049;-76
2023/01/06 04:38:41;;;;;;;42.10;39.27;;;9.90;99.90;;;;;;5063699;28;20371;-76
2023/01/06 04:41:07;;;;;;;37.50;34.70;;;9.90;99.90;;;;;;5069724;28;20135;-76
2023/01/06 04:43:33;;;;;;;52.93;49.87;;;9.90;99.90;;;;;;5069429;28;20088;-76
2023/01/06 04:45:59;;;;;;;38.20;35.60;;;10.00;99.90;;;;;;5070319;28;20383;-76
2023/01/06 04:48:25;;;;;;;56.10;53.13;;;10.00;99.90;;;;;;5054017;28;20110;-76
2023/01/06 04:51:00;;;;;;;43.67;41.17;;;10.00;99.90;;;;;;5069629;28;20494;-76
2023/01/06 04:53:25;;;;;;;38.23;35.83;;;10.10;99.90;;;;;;5069006;28;20456;-76
2023/01/06 04:55:51;;;;;;;46.17;43.40;;;10.00;99.90;;;;;;5069229;28;20047;-76
2023/01/06 04:58:17;;;;;;;51.30;48.13;;;10.00;99.90;;;;;;5053680;28;20067;-77
2023/01/06 05:00:42;;;;;;;47.27;44.47;;;10.10;99.90;;;;;;5069825;28;20075;-77
2023/01/06 05:03:08;;;;;;;84.27;79.60;;;10.00;99.90;;;;;;5047695;28;20049;-78
2023/01/06 05:05:33;;;;;;;158.00;147.13;;;10.10;99.90;;;;;;5060858;28;20052;-77
2023/01/06 05:07:59;;;;;;;55.13;52.07;;;10.20;99.90;;;;;;5052553;28;20088;-76
2023/01/06 05:10:25;;;;;;;66.83;62.93;;;10.20;99.90;;;;;;5070079;28;20043;-77
2023/01/06 05:12:50;;;;;;;29.77;28.10;;;10.20;99.90;;;;;;5068088;28;20055;-76
2023/01/06 05:15:16;;;;;;;36.97;35.03;;;10.10;99.90;;;;;;5069976;28;20459;-76
2023/01/06 05:17:42;;;;;;;37.73;35.37;;;10.20;99.90;;;;;;5052824;28;20501;-76
2023/01/06 05:20:08;;;;;;;62.87;59.37;;;10.20;99.90;;;;;;5052270;28;20036;-76
2023/01/06 05:22:34;;;;;;;45.20;42.57;;;10.10;99.90;;;;;;5050789;28;20435;-77
2023/01/06 05:24:59;;;;;;;33.07;30.93;;;10.20;99.90;;;;;;5069693;28;20186;-77
2023/01/06 05:27:25;;;;;;;32.87;30.97;;;10.20;99.90;;;;;;5052974;28;20048;-77
2023/01/06 05:29:51;;;;;;;51.70;48.90;;;10.10;99.90;;;;;;5069321;28;20161;-76
2023/01/06 05:32:16;;;;;;;61.60;58.37;;;10.10;99.90;;;;;;5061175;28;20359;-76
2023/01/06 05:34:42;;;;;;;36.30;34.03;;;10.10;99.90;;;;;;5066018;28;20198;-76
2023/01/06 05:37:08;;;;;;;66.23;62.80;;;10.10;99.90;;;;;;5052406;28;20456;-76
2023/01/06 05:39:33;;;;;;;62.57;58.93;;;10.00;99.90;;;;;;5048053;28;20478;-76
2023/01/06 05:41:59;;;;;;;34.90;32.80;;;10.00;99.90;;;;;;5050904;28;20061;-76
2023/01/06 05:44:25;;;;;;;70.90;66.83;;;10.00;99.90;;;;;;5062520;28;20512;-78
2023/01/06 05:46:50;;;;;;;39.70;37.27;;;9.90;99.90;;;;;;5051584;28;20041;-75
2023/01/06 05:49:16;;;;;;;77.13;72.73;;;9.80;99.90;;;;;;5049987;28;20059;-76
2023/01/06 05:51:41;;;;;;;61.27;57.50;;;9.70;99.90;;;;;;5065798;28;20048;-76
2023/01/06 05:54:08;;;;;;;48.20;45.33;;;9.60;99.90;;;;;;5068519;28;20044;-76
2023/01/06 05:56:35;;;;;;;86.73;81.47;;;9.50;99.90;;;;;;5054724;28;20079;-77
2023/01/06 05:59:01;;;;;;;68.77;64.47;;;9.40;99.90;;;;;;5048802;28;20045;-78
2023/01/06 06:01:30;;;;;;;38.87;36.10;;;9.40;99.90;;;;;;5069244;28;20047;-76
2023/01/06 06:03:56;;;;;;;55.77;52.00;;;9.30;99.90;;;;;;5037457;28;20592;-78
2023/01/06 06:06:24;;;;;;;104.13;97.63;;;9.30;99.90;;;;;;5004901;28;20044;-80
2023/01/06 06:08:49;;;;;;;53.97;50.57;;;9.30;99.90;;;;;;5062066;28;20075;-76
2023/01/06 06:11:17;;;;;;;50.70;47.27;;;9.30;99.90;;;;;;5064912;28;20044;-78
2023/01/06 06:13:48;;;;;;;57.43;53.40;;;9.30;99.90;;;;;;5064914;28;20044;-78
2023/01/06 06:16:15;;;;;;;53.23;49.10;;;9.30;99.90;;;;;;5044168;28;20052;-76
2023/01/06 06:18:41;;;;;;;56.63;52.83;;;9.30;99.90;;;;;;5050990;28;20482;-77
2023/01/06 06:21:11;;;;;;;62.37;58.20;;;9.30;99.90;;;;;;5047862;28;20490;-76
2023/01/06 06:23:37;;;;;;;49.43;46.00;;;9.30;99.90;;;;;;5064434;28;20044;-76
2023/01/06 06:26:03;;;;;;;63.93;59.87;;;9.40;99.90;;;;;;5070488;28;20055;-76
2023/01/06 06:28:30;;;;;;;56.77;53.07;;;9.40;99.90;;;;;;5055760;28;20127;-77
2023/01/06 06:31:06;;;;;;;76.77;72.03;;;9.30;99.90;;;;;;5054556;28;20053;-77
2023/01/06 06:33:32;;;;;;;49.37;45.83;;;9.40;99.90;;;;;;5036067;28;20130;-76
2023/01/06 06:35:58;;;;;;;52.60;49.10;;;9.40;99.90;;;;;;5061164;28;20127;-77
2023/01/06 06:38:24;;;;;;;135.17;126.63;;;9.40;99.90;;;;;;5053353;28;20406;-76
2023/01/06 06:40:50;;;;;;;62.80;58.77;;;9.40;99.90;;;;;;5058448;28;20048;-76
2023/01/06 06:43:15;;;;;;;59.03;55.33;;;9.50;99.90;;;;;;5050638;28;20060;-79
2023/01/06 06:45:43;;;;;;;78.57;73.63;;;9.40;99.90;;;;;;5050402;28;20060;-76
2023/01/06 06:48:09;;;;;;;44.63;41.67;;;9.50;99.90;;;;;;5036154;28;20713;-77
2023/01/06 06:50:35;;;;;;;53.67;50.20;;;9.40;99.90;;;;;;5052564;28;20068;-76
2023/01/06 06:53:01;;;;;;;125.77;117.73;;;9.40;99.90;;;;;;5033535;28;20053;-77
2023/01/06 06:55:26;;;;;;;48.93;45.20;;;9.40;99.90;;;;;;5052142;28;20138;-76
2023/01/06 06:57:52;;;;;;;77.37;72.47;;;9.40;99.90;;;;;;5035394;28;20127;-77
2023/01/06 07:00:18;;;;;;;30.87;28.47;;;9.30;99.90;;;;;;5034679;28;20036;-76
2023/01/06 07:02:48;;;;;;;50.43;47.33;;;9.40;99.90;;;;;;5051576;28;20053;-76
2023/01/06 07:05:14;;;;;;;58.13;54.33;;;9.30;99.90;;;;;;5052427;28;20057;-77
2023/01/06 07:07:40;;;;;;;45.63;42.70;;;9.40;99.90;;;;;;5035453;28;20057;-77
2023/01/06 07:10:06;;;;;;;233.03;218.33;;;9.30;99.90;;;;;;5059239;28;20055;-77
2023/01/06 07:12:32;;;;;;;333.73;308.47;;;9.30;99.90;;;;;;5070944;28;20044;-77
2023/01/06 07:14:57;;;;;;;65.87;61.37;;;9.50;99.90;;;;;;5071945;28;20048;-77
2023/01/06 07:17:27;;;;;;;203.97;191.03;;;9.50;99.90;;;;;;5055421;28;20052;-76
2023/01/06 07:19:53;;;;;;;72.80;68.67;;;9.40;99.90;;;;;;5054289;28;20075;-76
2023/01/06 07:22:18;;;;;;;79.97;75.70;;;9.60;99.90;;;;;;5070704;28;20064;-76
2023/01/06 07:24:44;;;;;;;262.50;243.57;;;9.60;99.90;;;;;;5071182;28;20044;-76
2023/01/06 07:27:10;;;;;;;35.40;33.57;;;9.70;99.90;;;;;;5055984;28;20094;-76
2023/01/06 07:29:35;;;;;;;184.63;173.23;;;9.60;99.90;;;;;;5071949;28;20044;-76
2023/01/06 07:32:01;;;;;;;34.53;32.60;;;9.60;99.90;;;;;;5071577;28;20044;-75
2023/01/06 07:34:27;;;;;;;82.13;76.83;;;9.60;99.90;;;;;;5067400;28;20060;-76
2023/01/06 07:36:52;;;;;;;65.97;61.90;;;9.60;99.90;;;;;;5045225;28;20619;-77
2023/01/06 07:39:18;;;;;;;315.50;289.23;;;9.50;99.90;;;;;;5029279;28;20541;-76
2023/01/06 07:41:44;;;;;;;314.63;291.33;;;9.60;99.90;;;;;;5062522;28;20110;-77
2023/01/06 07:44:09;;;;;;;54.53;51.03;;;9.50;99.90;;;;;;5048361;28;20053;-77
2023/01/06 07:46:35;;;;;;;176.20;164.13;;;9.40;99.90;;;;;;5046067;28;20517;-77
2023/01/06 07:49:01;;;;;;;87.10;81.40;;;9.30;99.90;;;;;;5035040;28;20049;-76
2023/01/06 07:51:26;;;;;;;42.57;39.83;;;9.20;99.90;;;;;;5051360;28;20087;-77
2023/01/06 07:53:52;;;;;;;26.60;24.40;;;9.20;99.90;;;;;;5046953;28;20366;-76
2023/01/06 07:56:18;;;;;;;14.87;13.43;;;9.00;99.90;;;;;;5038722;28;20106;-80
2023/01/06 07:58:43;;;;;;;20.97;19.73;;;8.90;99.90;;;;;;5042635;28;20575;-76
2023/01/06 08:01:10;;;;;;;30.67;28.77;;;8.70;99.90;;;;;;5048195;28;20135;-76
2023/01/06 08:03:35;;;;;;;30.53;28.67;;;8.60;99.90;;;;;;5046091;28;20076;-76
2023/01/06 08:06:09;;;;;;;27.50;26.03;;;8.50;99.90;;;;;;5047411;28;20080;-76
2023/01/06 08:08:39;;;;;;;16.27;14.93;;;8.40;99.90;;;;;;5052500;28;20383;-76
2023/01/06 08:11:06;;;;;;;42.93;40.43;;;8.20;99.90;;;;;;5048142;28;20068;-76
2023/01/06 08:13:32;;;;;;;41.03;38.77;;;8.10;99.90;;;;;;5028374;28;20041;-77
2023/01/06 08:16:02;;;;;;;23.27;21.87;;;8.00;99.90;;;;;;5046742;28;20047;-76
2023/01/06 08:18:28;;;;;;;26.97;25.03;;;8.00;99.90;;;;;;5030748;28;20052;-76
2023/01/06 08:20:59;;;;;;;16.20;14.67;;;7.90;99.90;;;;;;5047571;28;20436;-76
2023/01/06 08:23:25;;;;;;;8.65;6.72;;;7.80;99.90;;;;;;5040046;28;20045;-76
2023/01/06 08:25:50;;;;;;;46.67;43.87;;;7.80;99.90;;;;;;5067105;28;20052;-77
2023/01/06 08:28:16;;;;;;;32.93;30.67;;;8.00;99.90;;;;;;5014230;28;20091;-77
2023/01/06 08:30:42;;;;;;;14.83;13.40;;;7.80;99.90;;;;;;5066458;28;20094;-76
2023/01/06 08:33:08;;;;;;;25.33;23.67;;;7.70;99.90;;;;;;5046801;28;20048;-77
2023/01/06 08:35:33;;;;;;;12.03;10.70;;;7.80;99.90;;;;;;5049110;28;20048;-76
2023/01/06 08:37:59;;;;;;;10.13;8.87;;;7.70;99.90;;;;;;5013870;28;20410;-76
2023/01/06 08:40:24;;;;;;;39.47;36.87;;;7.70;99.90;;;;;;5046724;28;20049;-76
2023/01/06 08:42:50;;;;;;;16.80;15.27;;;7.70;99.90;;;;;;5043834;28;20057;-77
2023/01/06 08:45:17;;;;;;;15.37;13.83;;;7.70;99.90;;;;;;5061283;28;20132;-77
2023/01/06 08:47:43;;;;;;;17.90;16.57;;;7.60;99.90;;;;;;5030175;28;20110;-75
2023/01/06 08:50:08;;;;;;;13.30;10.53;;;7.60;99.90;;;;;;5029439;28;20044;-77
2023/01/06 08:52:34;;;;;;;17.97;16.53;;;7.60;99.90;;;;;;5027369;28;20044;-76
2023/01/06 08:55:00;;;;;;;18.03;16.47;;;7.80;99.90;;;;;;5046363;28;20041;-76
2023/01/06 08:57:25;;;;;;;28.70;25.90;;;8.00;99.90;;;;;;5029367;28;20440;-76
2023/01/06 08:59:51;;;;;;;14.10;9.80;;;7.90;99.90;;;;;;5049262;28;20469;-76
2023/01/06 09:02:17;;;;;;;21.83;15.67;;;8.00;99.90;;;;;;5064030;28;20375;-77
2023/01/06 09:04:42;;;;;;;37.30;34.10;;;7.90;99.90;;;;;;5028052;28;20410;-77
2023/01/06 09:07:08;;;;;;;16.63;13.83;;;7.90;99.90;;;;;;5029718;28;20473;-77
2023/01/06 09:09:34;;;;;;;23.17;11.07;;;7.80;99.90;;;;;;5046641;28;20032;-76
2023/01/06 09:12:00;;;;;;;15.63;7.67;;;7.80;99.90;;;;;;5047110;28;20106;-77
2023/01/06 09:14:26;;;;;;;21.70;16.20;;;7.80;99.90;;;;;;5043652;28;20045;-77
2023/01/06 09:16:51;;;;;;;25.03;22.57;;;7.80;99.90;;;;;;5033234;28;20048;-76
2023/01/06 09:19:19;;;;;;;23.23;20.93;;;7.80;99.90;;;;;;5049975;28;20049;-77
2023/01/06 09:21:45;;;;;;;20.47;10.90;;;7.80;99.90;;;;;;5051457;28;20051;-77
2023/01/06 09:24:14;;;;;;;22.17;18.50;;;7.80;99.90;;;;;;5049572;28;20048;-78
2023/01/06 09:26:40;;;;;;;46.30;42.70;;;7.90;99.90;;;;;;5038694;28;20068;-76
2023/01/06 09:29:05;;;;;;;14.90;8.33;;;7.90;99.90;;;;;;5052247;28;20133;-76
2023/01/06 09:31:31;;;;;;;32.77;29.97;;;7.90;99.90;;;;;;5064538;28;20422;-75
2023/01/06 09:33:56;;;;;;;15.30;12.00;;;8.00;99.90;;;;;;5044699;28;20515;-76
2023/01/06 09:36:22;;;;;;;27.93;20.43;;;8.00;99.90;;;;;;5052506;28;20059;-80
2023/01/06 09:38:48;;;;;;;19.40;8.60;;;8.00;99.90;;;;;;5058953;28;20040;-76
2023/01/06 09:41:41;;;;;;;20.50;12.77;;;8.10;99.90;;;;;;5062796;28;20049;-78
2023/01/06 09:44:32;;;;;;;27.53;24.70;;;8.10;99.90;;;;;;5043287;28;20132;-77
2023/01/06 09:47:00;;;;;;;16.10;5.87;;;8.30;99.90;;;;;;5037608;28;20056;-76
2023/01/06 09:50:04;;;;;;;16.20;8.47;;;8.20;99.90;;;;;;5063023;28;20052;-77
2023/01/06 09:52:46;;;;;;;18.23;7.53;;;8.30;99.90;;;;;;5063383;28;20048;-76
2023/01/06 09:55:33;;;;;;;17.47;11.33;;;8.30;99.90;;;;;;5064598;28;20084;-77
2023/01/06 09:58:13;;;;;;;28.20;11.53;;;8.30;99.90;;;;;;5046883;28;20063;-76
2023/01/06 10:00:48;;;;;;;15.77;11.20;;;8.20;99.90;;;;;;5063932;28;20059;-77
2023/01/06 10:03:19;;;;;;;33.40;30.03;;;8.40;99.90;;;;;;5047321;28;20049;-78
2023/01/06 10:06:02;;;;;;;17.17;15.52;;;8.30;99.90;;;;;;5050542;28;20132;-76
2023/01/06 10:08:31;;;;;;;16.40;6.77;;;8.20;99.90;;;;;;5053107;28;20049;-76
2023/01/06 10:11:13;;;;;;;26.77;17.70;;;8.30;99.90;;;;;;5068839;28;20063;-76
2023/01/06 10:14:05;;;;;;;23.73;19.67;;;8.30;99.90;;;;;;5068857;28;20048;-76
2023/01/06 10:16:52;;;;;;;23.07;13.27;;;8.40;99.90;;;;;;5053830;28;20048;-77
2023/01/06 10:19:23;;;;;;;28.07;24.90;;;8.50;99.90;;;;;;5032588;28;20497;-76
2023/01/06 10:21:53;;;;;;;;;;;8.40;99.90;;;;;;5042571;28;20082;-76
2023/01/06 10:25:05;;;;;;;15.33;9.47;;;8.60;99.90;;;;;;5064880;28;19951;-79
2023/01/06 10:27:52;;;;;;;36.83;33.47;;;8.50;99.90;;;;;;5051674;28;20131;-75
2023/01/06 10:30:29;;;;;;;27.43;24.67;;;8.70;99.90;;;;;;5066134;28;20056;-77
2023/01/06 10:32:56;;;;;;;24.47;22.10;;;9.30;99.90;;;;;;5048675;28;20044;-76
2023/01/06 10:35:24;;;;;;;27.73;23.53;;;9.30;99.90;;;;;;5067496;28;20090;-76
2023/01/06 10:37:51;;;;;;;17.67;12.40;;;9.40;99.90;;;;;;5035059;28;20048;-76
2023/01/06 10:40:26;;;;;;;24.30;20.73;;;9.60;99.90;;;;;;5046751;28;20056;-77
2023/01/06 10:43:02;;;;;;;57.80;53.50;;;9.60;99.90;;;;;;5049576;28;20055;-76
2023/01/06 10:45:58;;;;;;;68.80;63.77;;;9.50;99.90;;;;;;5066249;28;20194;-77
2023/01/06 10:48:28;;;;;;;22.97;17.07;;;9.20;99.90;;;;;;5035232;28;20044;-76
2023/01/06 10:50:53;;;;;;;19.33;15.40;;;9.30;99.90;;;;;;5049902;28;20052;-77
2023/01/06 10:53:19;;;;;;;21.30;19.20;;;9.80;99.90;;;;;;5067403;28;20186;-76
2023/01/06 10:55:54;;;;;;;30.37;27.70;;;10.00;99.90;;;;;;5067681;28;20044;-76
2023/01/06 10:58:45;;;;;;;27.00;24.73;;;9.80;99.90;;;;;;5051838;28;20127;-76
2023/01/06 11:01:16;;;;;;;27.80;25.17;;;9.60;99.90;;;;;;5067738;28;20048;-76
2023/01/06 11:03:43;;;;;;;23.48;21.20;;;9.70;99.90;;;;;;5048039;28;20048;-76
2023/01/06 11:06:26;;;;;;;18.40;15.67;;;9.70;99.90;;;;;;5060653;28;20041;-79
2023/01/06 11:08:52;;;;;;;27.97;25.37;;;10.30;99.90;;;;;;5061878;28;20048;-77
2023/01/06 11:11:19;;;;;;;38.50;35.87;;;10.30;99.90;;;;;;5066554;28;20490;-77
2023/01/06 11:13:49;;;;;;;27.93;25.30;;;10.50;99.90;;;;;;5065493;28;20040;-77
2023/01/06 11:16:41;;;;;;;46.07;42.30;;;10.90;99.90;;;;;;5057862;28;20048;-75
2023/01/06 11:19:22;;;;;;;31.53;29.23;;;10.40;99.90;;;;;;5048010;28;20036;-76
2023/01/06 11:21:47;;;;;;;86.53;80.10;;;10.10;99.90;;;;;;5070604;28;20106;-75
2023/01/06 11:24:19;;;;;;;52.13;48.47;;;9.80;99.90;;;;;;5069753;28;20060;-78
2023/01/06 11:26:53;;;;;;;41.30;38.13;;;10.00;99.90;;;;;;5055125;28;20490;-76
2023/01/06 11:29:39;;;;;;;46.03;42.97;;;10.00;99.90;;;;;;5069659;28;20060;-76
2023/01/06 11:32:13;;;;;;;31.33;28.90;;;10.10;99.90;;;;;;5068373;28;20044;-76
2023/01/06 11:34:49;;;;;;;28.87;26.13;;;10.30;99.90;;;;;;5070466;28;20048;-76
2023/01/06 11:37:15;;;;;;;56.00;51.97;;;10.30;99.90;;;;;;5055228;28;20049;-75
2023/01/06 11:39:41;;;;;;;87.60;82.00;;;10.10;99.90;;;;;;5069947;28;20055;-75
2023/01/06 11:42:13;;;;;;;28.53;25.97;;;9.80;99.90;;;;;;5069387;28;20044;-76
2023/01/06 11:44:43;;;;;;;29.53;27.23;;;9.70;99.90;;;;;;5052131;28;20087;-75
2023/01/06 11:47:21;;;;;;;58.50;54.60;;;9.70;99.90;;;;;;5052912;28;20529;-75
2023/01/06 11:49:55;;;;;;;35.50;32.30;;;9.60;99.90;;;;;;5032684;28;20068;-75
2023/01/06 11:52:26;;;;;;;40.60;37.37;;;9.60;99.90;;;;;;5069298;28;20402;-76
2023/01/06 11:55:17;;;;;;;72.40;67.75;;;9.70;99.90;;;;;;5051843;28;20485;-78
2023/01/06 11:57:43;;;;;;;;;;;9.60;99.90;;;;;;5054399;28;20057;-76
2023/01/06 12:00:33;;;;;;;29.97;27.67;;;9.60;99.90;;;;;;5070420;28;19934;-75
2023/01/06 12:03:22;;;;;;;58.70;54.47;;;9.60;99.90;;;;;;5068045;28;20056;-80
2023/01/06 12:06:09;;;;;;;65.93;61.43;;;9.50;99.90;;;;;;5068099;28;20037;-76
2023/01/06 12:09:19;;;;;;;25.80;23.20;;;9.50;99.90;;;;;;5059233;28;20124;-80
2023/01/06 12:11:54;;;;;;;162.03;150.83;;;9.50;99.90;;;;;;5069787;28;20398;-76
2023/01/06 12:14:33;;;;;;;36.77;33.73;;;9.50;99.90;;;;;;5069380;28;20049;-75
2023/01/06 12:17:15;;;;;;;30.70;28.40;;;9.50;99.90;;;;;;5053443;28;20048;-76
2023/01/06 12:19:49;;;;;;;34.97;31.67;;;9.60;99.90;;;;;;5069220;28;20761;-76
2023/01/06 12:22:35;;;;;;;33.63;30.30;;;9.60;99.90;;;;;;5067559;28;20336;-79
2023/01/06 12:25:02;;;;;;;32.50;29.73;;;9.60;99.90;;;;;;5062982;28;20055;-75
2023/01/06 12:27:40;;;;;;;68.17;63.53;;;9.50;99.90;;;;;;5047832;28;20044;-76
2023/01/06 12:30:26;;;;;;;32.50;29.97;;;9.50;99.90;;;;;;5065542;28;20037;-76
2023/01/06 12:32:55;;;;;;;65.83;61.33;;;9.50;99.90;;;;;;5064351;28;20128;-75
2023/01/06 12:35:26;;;;;;;31.07;28.63;;;9.50;99.90;;;;;;5065910;28;20045;-78
2023/01/06 12:38:05;;;;;;;28.20;25.88;;;9.60;99.90;;;;;;5033769;28;20044;-76
2023/01/06 12:40:51;;;;;;;53.13;49.23;;;9.60;99.90;;;;;;5062457;28;20048;-76
2023/01/06 12:43:22;;;;;;;30.83;27.67;;;9.60;99.90;;;;;;5060901;28;20663;-76
2023/01/06 12:46:18;;;;;;;68.95;64.07;;;9.60;99.90;;;;;;5065232;28;20597;-76
2023/01/06 12:48:55;;;;;;;49.30;44.77;;;9.50;99.90;;;;;;5061622;28;20048;-79
2023/01/06 12:51:32;;;;;;;40.00;36.70;;;9.40;99.90;;;;;;5065614;28;20048;-76
2023/01/06 12:54:03;;;;;;;35.07;32.00;;;9.40;99.90;;;;;;5066524;28;20041;-76
2023/01/06 12:56:34;;;;;;;;;;;9.50;99.90;;;;;;5055530;28;20056;-76
2023/01/06 12:59:44;;;;;;;47.30;42.83;;;9.50;99.90;;;;;;5062808;28;20050;-77
2023/01/06 13:02:47;;;;;;;40.30;37.60;;;9.50;99.90;;;;;;5054171;28;20989;-76